Terminal Aerodrome Forecast
Issued by NWS

Current Version | Previous Version | Text Only | Print | Product List | Glossary On
Versions: 1 2 3 4 5 6 7 8 9 10 11 12 13 14 15
187
FTAK31 PAJN 221139
TAFAPG
TAF
PAPG 221139Z 2212/2312 16004KT P6SM -SHRA BKN020 OVC035
     FM221500 14004KT 5SM -SHRA BR OVC025
     FM222200 15012G20KT 5SM -SHRA BR SCT015 OVC025 WS020/15030KT
     FM230300 18008KT 4SM -SHRA BR BKN015 OVC025
      AMD LTD TO CLD VIS AND WIND 2212/2215=

USA.gov is the U.S. government's official web portal to all federal, state and local government web resources and services.